Flight Track Log - Related Links

Times and Time Zones

All times are in EDT time to prevent confusion due to time zone crossing. See the N416MC flight status page for this flight to view local times or setup timezone preferences in your user account.

Time Position Orientation Groundspeed Altitude Reporting Facility
EDT Latitude Longitude Course Direction KTS MPH feet Rate Location/Type
Thu 07:59:53 PM 61.2040 -150.0170 343° North 169 194 600  Level FlightAware ADS-B
Thu 08:00:08 PM 61.2140 -150.0230 344° North 170 196 1,200 2,400 Climbing FlightAware ADS-B
Thu 08:00:38 PM 61.2340 -150.0560 322° Northwest 170 196 2,400 2,000 Climbing FlightAware ADS-B
Thu 08:01:08 PM 61.2520 -150.0890 319° Northwest 179 206 3,200 1,309 Climbing FlightAware ADS-B
Thu 08:01:33 PM 61.2690 -150.1200 319° Northwest 208 239 3,600 900 Climbing FlightAware ADS-B
Thu 08:01:48 PM 61.2810 -150.1410 320° Northwest 228 262 3,800 1,200 Climbing FlightAware ADS-B
Thu 08:02:18 PM 61.3050 -150.1870 317° Northwest 255 293 4,500 1,745 Climbing FlightAware ADS-B
Thu 08:02:43 PM 61.3210 -150.2380 303° West 277 319 5,400 2,057 Climbing FlightAware ADS-B
Thu 08:02:53 PM 61.3230 -150.2600 281° West 284 327 5,700 2,200 Climbing FlightAware ADS-B
Thu 08:03:13 PM 61.3170 -150.3040 254° West 298 343 6,500 3,000 Climbing FlightAware ADS-B
Thu 08:03:23 PM 61.3050 -150.3350 231° Southwest 308 354 7,200 3,360 Climbing FlightAware ADS-B
Thu 08:03:38 PM 61.2870 -150.3550 208° Southwest 316 364 7,900 3,200 Climbing FlightAware ADS-B
Thu 08:03:53 PM 61.2650 -150.3610 187° South 317 365 8,800 2,571 Climbing FlightAware ADS-B
Thu 08:04:48 PM 61.1790 -150.3620 180° South 346 398 10,900 1,860 Climbing FlightAware ADS-B
Thu 08:05:33 PM 61.1010 -150.3620 180° South 389 448 11,900 1,694 Climbing FlightAware ADS-B
Thu 08:06:13 PM 61.0300 -150.3410 172° South 410 472 13,300 2,400 Climbing FlightAware ADS-B
Thu 08:06:53 PM 60.9660 -150.2510 146° Southeast 415 478 15,100 2,541 Climbing FlightAware ADS-B
Thu 08:07:38 PM 60.9100 -150.1110 129° Southeast 424 488 16,900 2,188 Climbing FlightAware ADS-B
Thu 08:08:18 PM 60.8640 -149.9840 127° Southeast 435 501 18,200 2,100 Climbing FlightAware ADS-B
Thu 08:08:58 PM 60.8150 -149.8500 127° Southeast 441 507 19,700 2,188 Climbing FlightAware ADS-B
Thu 08:09:43 PM 60.7580 -149.6960 127° Southeast 458 527 21,300 2,047 Climbing FlightAware ADS-B
Thu 08:10:23 PM 60.7050 -149.5540 127° Southeast 464 534 22,600 1,875 Climbing FlightAware ADS-B
Thu 08:11:03 PM 60.6520 -149.4120 127° Southeast 480 552 23,800 1,624 Climbing FlightAware ADS-B
Thu 08:11:48 PM 60.5920 -149.2530 127° Southeast 490 564 24,900 1,467 Climbing FlightAware ADS-B
Thu 08:12:33 PM 60.5270 -149.0810 127° Southeast 504 580 26,000 1,412 Climbing FlightAware ADS-B
Thu 08:13:13 PM 60.4740 -148.9430 128° Southeast 514 592 26,900 1,350 Climbing FlightAware ADS-B
Thu 08:13:53 PM 60.4120 -148.7830 128° Southeast 530 610 27,800 1,482 Climbing FlightAware ADS-B
Thu 08:14:38 PM 60.3450 -148.6080 128° Southeast 528 608 29,000 1,650 Climbing FlightAware ADS-B
Thu 08:15:13 PM 60.2930 -148.4750 128° Southeast 527 606 30,000 1,326 Climbing FlightAware ADS-B
Thu 08:16:13 PM 60.2060 -148.2500 128° Southeast 524 603 31,100 1,579 Climbing FlightAware ADS-B
Thu 08:16:48 PM 60.1470 -148.1060 129° Southeast 520 598 32,500 1,050 Climbing FlightAware ADS-B
Thu 08:17:33 PM 60.0910 -147.9560 127° Southeast 520 598 32,500 857 Level FlightAware ADS-B
Thu 08:18:33 PM 59.9970 -147.7290 130° Southeast 516 594 34,000 900 Climbing FlightAware ADS-B
Thu 08:19:13 PM 59.9470 -147.6010 128° Southeast 516 594 34,000  Level FlightAware ADS-B
Thu 08:19:53 PM 59.8970 -147.4730 128° Southeast 516 594 34,000  Level FlightAware ADS-B
Thu 08:20:33 PM 59.8470 -147.3460 128° Southeast 516 594 34,000  Level FlightAware ADS-B
Thu 08:21:23 PM 59.7850 -147.1870 128° Southeast 516 594 34,000  Level FlightAware ADS-B
Thu 08:22:03 PM 59.7350 -147.0600 128° Southeast 516 594 34,000  Level FlightAware ADS-B
Thu 08:22:43 PM 59.6850 -146.9330 128° Southeast 516 594 34,000  Level FlightAware ADS-B
Thu 08:23:23 PM 59.6350 -146.8070 128° Southeast 516 594 34,000  Level FlightAware ADS-B
Thu 08:24:03 PM 59.5850 -146.6800 128° Southeast 516 594 34,000  Level FlightAware ADS-B
Thu 08:24:53 PM 59.5220 -146.5230 128° Southeast 516 594 34,000  Level FlightAware ADS-B
Thu 08:25:33 PM 59.4720 -146.3970 128° Southeast 516 594 34,000  Level FlightAware ADS-B
Thu 08:26:13 PM 59.4220 -146.2710 128° Southeast 516 594 34,000  Level FlightAware ADS-B
Thu 08:26:53 PM 59.3720 -146.1450 128° Southeast 516 594 34,000  Level FlightAware ADS-B
Thu 08:27:33 PM 59.3220 -146.0200 128° Southeast 516 594 34,000 870 Level FlightAware ADS-B
Thu 08:28:02 PM 59.1167 -145.6500 128° Southeast 510 587 35,000 674 Climbing Anchorage Center
Thu 08:29:02 PM 59.0333 -145.4333 127° Southeast 520 598 35,000  Level Anchorage Center
Thu 08:31:02 PM 58.8333 -145.0000 132° Southeast 520 598 35,000  Level Anchorage Center
Thu 08:32:02 PM 58.7500 -144.7833 126° Southeast 520 598 35,000  Level Anchorage Center
Thu 08:33:02 PM 58.6500 -144.5667 132° Southeast 520 598 35,000  Level Anchorage Center
Thu 08:34:03 PM 58.5500 -144.3500 131° Southeast 520 598 35,000  Level Anchorage Center
Thu 08:35:02 PM 58.4667 -144.1500 128° Southeast 520 598 35,000  Level Anchorage Center
Thu 08:36:02 PM 58.3667 -143.9333 131° Southeast 520 598 35,000  Level Anchorage Center
Thu 08:37:03 PM 58.2667 -143.7167 131° Southeast 520 598 35,000  Level Anchorage Center
Thu 08:38:03 PM 58.1667 -143.5167 133° Southeast 520 598 35,000  Level Anchorage Center
Thu 08:39:03 PM 58.0667 -143.3167 133° Southeast 520 598 35,000  Level Anchorage Center
Thu 08:40:03 PM 57.9833 -143.1167 128° Southeast 520 598 35,000  Level Anchorage Center
Thu 08:41:03 PM 57.8833 -142.9333 136° Southeast 520 598 35,000  Level Anchorage Center
Thu 08:42:03 PM 57.8000 -142.7333 128° Southeast 520 598 35,000  Level Anchorage Center
Thu 08:43:04 PM 57.7000 -142.5333 133° Southeast 520 598 35,000  Level Anchorage Center
Thu 08:44:03 PM 57.6000 -142.3333 133° Southeast 520 598 35,000  Level Anchorage Center
Thu 08:45:03 PM 57.5000 -142.1333 133° Southeast 510 587 35,000  Level Anchorage Center
Thu 08:46:04 PM 57.4000 -141.9333 133° Southeast 520 598 35,000  Level Anchorage Center
Thu 08:47:04 PM 57.3000 -141.7500 135° Southeast 510 587 35,000  Level Anchorage Center
Thu 08:48:04 PM 57.2000 -141.5500 133° Southeast 510 587 35,000  Level Anchorage Center
Thu 08:49:03 PM 57.1000 -141.3500 133° Southeast 520 598 35,000  Level Anchorage Center
Thu 08:50:04 PM 57.0000 -141.1667 135° Southeast 510 587 35,000  Level Anchorage Center
Thu 08:51:04 PM 56.9000 -140.9833 135° Southeast 510 587 35,000  Level Anchorage Center
Thu 08:51:48 PM 56.8167 -140.9000 151° Southeast 510 587 35,000  Level Vancouver Center
Thu 08:52:04 PM 56.8000 -140.7833 105° East 510 587 35,000  Level Anchorage Center
Thu 08:53:04 PM 56.7000 -140.6000 135° Southeast 520 598 35,000  Level Anchorage Center
Thu 08:54:04 PM 56.6000 -140.4000 132° Southeast 510 587 35,000  Level Anchorage Center
Thu 08:54:47 PM 56.5167 -140.3333 156° South 520 598 35,000  Level Vancouver Center
Thu 08:55:47 PM 56.4167 -140.1333 132° Southeast 520 598 35,000  Level Vancouver Center
Thu 08:56:04 PM 56.4000 -140.0333 107° East 530 610 35,000  Level Anchorage Center
Thu 08:56:47 PM 56.3167 -139.9667 156° South 520 598 35,000  Level Vancouver Center
Thu 08:57:04 PM 56.3000 -139.8333 103° East 520 598 35,000  Level Anchorage Center
Thu 08:58:04 PM 56.2000 -139.6667 137° Southeast 510 587 35,000  Level Anchorage Center
Thu 08:58:47 PM 56.1000 -139.5833 155° Southeast 520 598 35,000  Level Vancouver Center
Thu 08:59:47 PM 56.0000 -139.4167 137° Southeast 520 598 35,000  Level Vancouver Center
Thu 09:00:04 PM 56.0000 -139.3000 90° East 500 575 35,000  Level Anchorage Center
Thu 09:01:04 PM 55.8833 -139.1167 139° Southeast 510 587 35,000  Level Anchorage Center
Thu 09:01:47 PM 55.8000 -139.0333 151° Southeast 520 598 35,000  Level Vancouver Center
Thu 09:02:47 PM 55.7000 -138.8833 140° Southeast 530 610 35,000  Level Vancouver Center
Thu 09:03:05 PM 55.6833 -138.7500 102° East 520 598 35,000  Level Anchorage Center
Thu 09:03:47 PM 55.6000 -138.6833 156° South 520 598 35,000  Level Vancouver Center
Thu 09:04:48 PM 55.5000 -138.5000 134° Southeast 520 598 35,000  Level Vancouver Center
Thu 09:05:48 PM 55.4000 -138.3333 137° Southeast 520 598 35,000  Level Vancouver Center
Thu 09:06:05 PM 55.3833 -138.2333 106° East 510 587 35,000  Level Anchorage Center
Thu 09:06:48 PM 55.3000 -138.1500 150° Southeast 520 598 35,000  Level Vancouver Center
Thu 09:07:05 PM 55.2667 -138.0500 120° Southeast 510 587 35,000  Level Anchorage Center
Thu 09:08:05 PM 55.1667 -137.8833 136° Southeast 510 587 35,000  Level Anchorage Center
Thu 09:08:48 PM 55.0833 -137.8167 155° Southeast 520 598 35,000  Level Vancouver Center
Thu 09:09:48 PM 54.9833 -137.6333 134° Southeast 520 598 35,000  Level Vancouver Center
Thu 09:10:05 PM 54.9667 -137.5333 106° East 510 587 35,000  Level Anchorage Center
Thu 09:11:05 PM 54.8667 -137.3667 136° Southeast 510 587 35,000  Level Anchorage Center
Thu 09:12:05 PM 54.7500 -137.2000 140° Southeast 520 598 35,000  Level Anchorage Center
Thu 09:13:05 PM 54.6500 -137.0333 136° Southeast 520 598 35,000  Level Anchorage Center
Thu 09:13:48 PM 54.5667 -136.9667 155° Southeast 520 598 35,000  Level Vancouver Center
Thu 09:14:06 PM 54.5500 -136.8667 106° East 510 587 35,000  Level Anchorage Center
Thu 09:15:06 PM 54.4333 -136.7000 140° Southeast 520 598 35,000  Level Anchorage Center
Thu 09:15:48 PM 54.3500 -136.6333 155° Southeast 520 598 35,000  Level Vancouver Center
Thu 09:16:06 PM 54.3333 -136.5333 106° East 510 587 35,000  Level Anchorage Center
Thu 09:17:06 PM 54.2333 -136.3667 136° Southeast 510 587 35,000  Level Anchorage Center
Thu 09:18:06 PM 54.1333 -136.2167 139° Southeast 500 575 35,000  Level Anchorage Center
Thu 09:19:06 PM 54.0000 -136.0167 139° Southeast 520 598 35,000  Level Anchorage Center
Thu 09:20:06 PM 53.8833 -135.8667 143° Southeast 500 575 35,000  Level Anchorage Center
Thu 09:20:48 PM 53.8000 -135.8500 173° South 510 587 35,000  Level Vancouver Center
Thu 09:21:48 PM 53.6833 -135.7000 143° Southeast 510 587 35,000  Level Vancouver Center
Thu 09:22:48 PM 53.5833 -135.5833 145° Southeast 510 587 35,000  Level Vancouver Center
Thu 09:23:48 PM 53.4500 -135.4333 146° Southeast 500 575 35,000  Level Vancouver Center
Thu 09:24:48 PM 53.3500 -135.3000 141° Southeast 510 587 35,000  Level Vancouver Center
Thu 09:25:48 PM 53.2333 -135.1500 142° Southeast 500 575 35,000  Level Vancouver Center
Thu 09:26:48 PM 53.1333 -135.0333 145° Southeast 510 587 35,000  Level Vancouver Center
Thu 09:27:48 PM 53.0000 -134.9000 149° Southeast 500 575 35,000  Level Vancouver Center
Thu 09:28:48 PM 52.9000 -134.7833 145° Southeast 500 575 35,000  Level Vancouver Center
Thu 09:29:48 PM 52.7667 -134.6500 149° Southeast 500 575 35,000  Level Vancouver Center
Thu 09:30:48 PM 52.6500 -134.5000 142° Southeast 500 575 35,000  Level Vancouver Center
Thu 09:31:48 PM 52.5500 -134.4000 149° Southeast 510 587 35,000  Level Vancouver Center
Thu 09:32:48 PM 52.4167 -134.2500 146° Southeast 500 575 35,000  Level Vancouver Center
Thu 09:33:48 PM 52.3167 -134.1167 141° Southeast 500 575 35,000  Level Vancouver Center
Thu 09:34:48 PM 52.2000 -134.0000 148° Southeast 500 575 35,000  Level Vancouver Center
Thu 09:35:48 PM 52.0833 -133.8667 145° Southeast 500 575 35,000  Level Vancouver Center
Thu 09:36:48 PM 51.9667 -133.7333 145° Southeast 510 587 35,000  Level Vancouver Center
Thu 09:37:48 PM 51.8500 -133.6333 152° Southeast 500 575 35,000  Level Vancouver Center
Thu 09:38:48 PM 51.7333 -133.5000 145° Southeast 500 575 35,000  Level Vancouver Center
Thu 09:39:48 PM 51.6167 -133.3667 145° Southeast 510 587 35,000  Level Vancouver Center
Thu 09:40:48 PM 51.5000 -133.2500 148° Southeast 510 587 35,000  Level Vancouver Center
Thu 09:41:48 PM 51.3833 -133.1167 144° Southeast 500 575 35,000  Level Vancouver Center
Thu 09:42:48 PM 51.2667 -133.0000 148° Southeast 510 587 35,000  Level Vancouver Center
Thu 09:43:48 PM 51.1500 -132.8833 148° Southeast 500 575 35,000  Level Vancouver Center
Thu 09:44:48 PM 51.0333 -132.7667 148° Southeast 500 575 35,000  Level Vancouver Center
Thu 09:45:48 PM 50.9167 -132.6667 152° Southeast 490 564 35,000  Level Vancouver Center
Thu 09:46:48 PM 50.8000 -132.5333 144° Southeast 500 575 35,000  Level Vancouver Center
Thu 09:47:48 PM 50.6833 -132.4000 144° Southeast 510 587 35,000  Level Vancouver Center
Thu 09:48:48 PM 50.5500 -132.2667 148° Southeast 500 575 35,000  Level Vancouver Center
Thu 09:49:48 PM 50.4333 -132.1667 151° Southeast 500 575 35,000  Level Vancouver Center
Thu 09:50:48 PM 50.3167 -132.0500 147° Southeast 500 575 35,000  Level Vancouver Center
Thu 09:51:48 PM 50.2000 -131.9500 151° Southeast 500 575 35,000  Level Vancouver Center
Thu 09:52:48 PM 50.1000 -131.8167 139° Southeast 500 575 35,000  Level Vancouver Center
Thu 09:53:48 PM 49.9667 -131.7333 158° South 500 575 35,000  Level Vancouver Center
Thu 09:54:48 PM 49.8500 -131.6333 151° Southeast 500 575 35,000  Level Vancouver Center
Thu 09:55:48 PM 49.7167 -131.5000 147° Southeast 500 575 35,000  Level Vancouver Center
Thu 09:56:48 PM 49.6000 -131.4000 151° Southeast 500 575 35,000  Level Vancouver Center
Thu 09:57:48 PM 49.4833 -131.2833 147° Southeast 500 575 35,000  Level Vancouver Center
Thu 09:58:48 PM 49.3667 -131.1833 151° Southeast 500 575 35,000  Level Vancouver Center
Thu 09:59:48 PM 49.2333 -131.0667 150° Southeast 510 587 35,000  Level Vancouver Center
Thu 10:00:48 PM 49.1167 -130.9667 151° Southeast 500 575 35,000  Level Vancouver Center
Thu 10:01:48 PM 48.9833 -130.8833 158° South 510 587 35,000  Level Vancouver Center
Thu 10:02:48 PM 48.8833 -130.7667 142° Southeast 510 587 35,000  Level Vancouver Center
Thu 10:03:48 PM 48.7500 -130.6667 154° Southeast 510 587 35,000  Level Vancouver Center
Thu 10:04:48 PM 48.6167 -130.5667 154° Southeast 510 587 35,000  Level Vancouver Center
Thu 10:05:48 PM 48.5000 -130.4500 146° Southeast 510 587 35,000  Level Vancouver Center
Thu 10:06:48 PM 48.3667 -130.3667 157° South 520 598 35,000  Level Vancouver Center
Thu 10:07:48 PM 48.2333 -130.2500 150° Southeast 520 598 35,000  Level Vancouver Center
Thu 10:08:48 PM 48.1167 -130.1500 150° Southeast 520 598 35,000  Level Vancouver Center
Thu 10:09:48 PM 47.9833 -130.0333 150° Southeast 530 610 35,000  Level Vancouver Center
Thu 10:10:48 PM 47.8500 -129.9500 157° South 540 621 35,000  Level Vancouver Center
Thu 10:11:48 PM 47.7333 -129.8333 146° Southeast 540 621 35,000  Level Vancouver Center
Thu 10:12:13 PM 47.7000 -129.7667 152° Southeast 526 605 35,000  Level Oakland Oceanic (ODAPS)
Thu 10:12:48 PM 47.6000 -129.7167 152° Southeast 530 610 35,000  Level Vancouver Center
Thu 10:13:48 PM 47.4500 -129.6167 156° South 530 610 35,000  Level Vancouver Center
Thu 10:14:48 PM 47.3500 -129.5167 146° Southeast 530 610 35,000  Level Vancouver Center
Thu 10:15:48 PM 47.2000 -129.4000 152° Southeast 550 633 35,000  Level Vancouver Center
Thu 10:16:48 PM 47.0667 -129.3167 157° South 550 633 35,000 -50 Level Vancouver Center
Thu 10:17:48 PM 46.9333 -129.2000 149° Southeast 540 621 34,900 -50 Descending Vancouver Center
Thu 10:18:48 PM 46.8167 -129.1167 154° Southeast 540 621 34,900 14 Level Vancouver Center
Thu 10:25:08 PM 45.9650 -128.4390 154° Southeast 546 628 35,000 15 Climbing FlightAware ADS-B
Thu 10:25:23 PM 45.9333 -128.4167 153° Southeast 541 623 35,000  Level Oakland Oceanic (ODAPS)
Thu 10:25:38 PM 45.8980 -128.3900 153° Southeast 546 628 35,000  Level FlightAware ADS-B
Thu 10:26:33 PM 45.7770 -128.3010 153° Southeast 547 629 35,000  Level FlightAware ADS-B
Thu 10:27:13 PM 45.6850 -128.2320 152° Southeast 548 631 35,000  Level FlightAware ADS-B
Thu 10:27:53 PM 45.5960 -128.1670 153° Southeast 548 631 35,000  Level FlightAware ADS-B
Thu 10:28:38 PM 45.4920 -128.0920 153° Southeast 549 632 35,000  Level FlightAware ADS-B
Thu 10:29:18 PM 45.4030 -128.0270 153° Southeast 549 632 35,000  Level FlightAware ADS-B
Thu 10:30:03 PM 45.3030 -127.9550 153° Southeast 550 633 35,000  Level FlightAware ADS-B
Thu 10:30:43 PM 45.2110 -127.8880 153° Southeast 550 633 35,000  Level FlightAware ADS-B
Thu 10:31:23 PM 45.1200 -127.8230 153° Southeast 551 634 35,000  Level FlightAware ADS-B
Thu 10:32:08 PM 45.0160 -127.7490 153° Southeast 551 634 35,000  Level FlightAware ADS-B
Thu 10:32:48 PM 44.9240 -127.6830 153° Southeast 552 635 35,000  Level FlightAware ADS-B
Thu 10:33:28 PM 44.8370 -127.6210 153° Southeast 553 636 35,000  Level FlightAware ADS-B
Thu 10:34:13 PM 44.7320 -127.5470 153° Southeast 553 636 35,000  Level FlightAware ADS-B
Thu 10:35:03 PM 44.6230 -127.4690 153° Southeast 552 635 35,000  Level FlightAware ADS-B
Thu 10:35:53 PM 44.5260 -127.4000 153° Southeast 552 635 35,000  Level FlightAware ADS-B
Thu 10:36:33 PM 44.4480 -127.3450 153° Southeast 552 635 35,000  Level FlightAware ADS-B
Thu 10:37:13 PM 44.3710 -127.2890 153° Southeast 552 635 35,000  Level FlightAware ADS-B
Thu 10:37:58 PM 44.2310 -127.1950 154° Southeast 547 629 35,000  Level FlightAware ADS-B
Thu 10:38:38 PM 44.1540 -127.1410 153° Southeast 547 629 35,000  Level FlightAware ADS-B
Thu 10:39:14 PM 44.0500 -127.0667 154° Southeast 543 625 35,000  Level Oakland Oceanic (ODAPS)
Thu 10:39:18 PM 44.0780 -127.0870 153° Southeast 547 629 35,000  Level FlightAware ADS-B
Thu 10:39:58 PM 44.0010 -127.0320 153° Southeast 547 629 35,000  Level FlightAware ADS-B
Thu 10:40:48 PM 43.8490 -126.9320 155° Southeast 544 626 35,000  Level FlightAware ADS-B
Thu 10:41:28 PM 43.7720 -126.8780 153° Southeast 544 626 35,000  Level FlightAware ADS-B
Thu 10:42:03 PM 43.6780 -126.8160 154° Southeast 542 624 35,000  Level FlightAware ADS-B
Thu 10:43:03 PM 43.5390 -126.7220 154° Southeast 541 623 35,000  Level FlightAware ADS-B
Thu 10:43:43 PM 43.4630 -126.6680 153° Southeast 541 623 35,000  Level FlightAware ADS-B
Thu 10:44:23 PM 43.3870 -126.6150 154° Southeast 541 623 35,000  Level FlightAware ADS-B
Thu 10:45:13 PM 43.2930 -126.5490 153° Southeast 541 623 35,000  Level FlightAware ADS-B
Thu 10:45:53 PM 43.2170 -126.4960 153° Southeast 541 623 35,000  Level FlightAware ADS-B
Thu 10:46:33 PM 43.1410 -126.4430 153° Southeast 541 623 35,000  Level FlightAware ADS-B
Thu 10:47:13 PM 43.0650 -126.3900 153° Southeast 541 623 35,000  Level FlightAware ADS-B
Thu 10:47:53 PM 42.9890 -126.3370 153° Southeast 541 623 35,000  Level FlightAware ADS-B
Thu 10:48:43 PM 42.8950 -126.2710 153° Southeast 541 623 35,000  Level FlightAware ADS-B
Thu 10:49:23 PM 42.8190 -126.2180 153° Southeast 541 623 35,000  Level FlightAware ADS-B
Thu 10:50:03 PM 42.7430 -126.1660 153° Southeast 541 623 35,000  Level FlightAware ADS-B
Thu 10:50:43 PM 42.6670 -126.1130 153° Southeast 541 623 35,000  Level FlightAware ADS-B
Thu 10:51:23 PM 42.5910 -126.0610 153° Southeast 541 623 35,000  Level FlightAware ADS-B
Thu 10:52:03 PM 42.5150 -126.0080 153° Southeast 541 623 35,000  Level FlightAware ADS-B
Thu 10:53:02 PM 42.2417 -125.7128 153° Southeast 541 623 35,000 -50 Level Oakland Center
Thu 10:54:03 PM 42.1206 -125.5939 144° Southeast 541 623 34,900 -49 Descending Oakland Center
Thu 10:55:04 PM 41.9986 -125.4775 145° Southeast 539 620 34,900  Level Oakland Center
Thu 10:56:05 PM 41.8778 -125.3592 144° Southeast 539 620 34,900 49 Level Oakland Center
Thu 10:57:06 PM 41.7550 -125.2450 145° Southeast 537 618 35,000  Climbing Oakland Center
Thu 10:58:08 PM 41.6333 -125.1292 145° Southeast 538 619 34,900 -49 Descending Oakland Center
Thu 10:59:09 PM 41.5114 -125.0144 145° Southeast 539 620 34,900  Level Oakland Center
Thu 11:00:10 PM 41.3894 -124.8997 145° Southeast 538 619 34,900 49 Level Oakland Center
Thu 11:01:11 PM 41.2683 -124.7861 145° Southeast 536 617 35,000 15 Climbing Oakland Center
Thu 11:06:38 PM 40.5720 -124.1750 145° Southeast 534 615 35,000  Level FlightAware ADS-B
Thu 11:07:18 PM 40.4890 -124.1230 155° Southeast 533 613 35,000  Level FlightAware ADS-B
Thu 11:07:58 PM 40.3970 -124.0660 155° Southeast 534 615 35,000  Level FlightAware ADS-B
Thu 11:08:43 PM 40.3080 -124.0100 154° Southeast 534 615 35,000  Level FlightAware ADS-B
Thu 11:09:28 PM 40.1860 -123.9400 156° South 532 612 35,000  Level FlightAware ADS-B
Thu 11:10:23 PM 40.0610 -123.8660 156° South 530 610 35,000  Level FlightAware ADS-B
Thu 11:11:03 PM 39.9750 -123.8070 152° Southeast 536 617 35,000  Level FlightAware ADS-B
Thu 11:11:48 PM 39.8830 -123.7240 145° Southeast 528 608 35,000  Level FlightAware ADS-B
Thu 11:12:28 PM 39.8040 -123.6460 143° Southeast 526 605 35,000  Level FlightAware ADS-B
Thu 11:13:03 PM 39.7360 -123.5800 143° Southeast 525 604 35,000  Level FlightAware ADS-B
Thu 11:13:53 PM 39.6330 -123.4800 143° Southeast 531 611 35,000  Level FlightAware ADS-B
Thu 11:14:33 PM 39.5540 -123.4050 144° Southeast 530 610 35,000  Level FlightAware ADS-B
Thu 11:15:18 PM 39.4650 -123.3210 144° Southeast 530 610 35,000  Level FlightAware ADS-B
Thu 11:15:58 PM 39.3860 -123.2460 144° Southeast 528 608 35,000  Level FlightAware ADS-B
Thu 11:16:38 PM 39.3070 -123.1720 144° Southeast 527 606 35,000  Level FlightAware ADS-B
Thu 11:17:23 PM 39.2180 -123.0890 144° Southeast 525 604 35,000  Level FlightAware ADS-B
Thu 11:18:03 PM 39.1400 -123.0150 144° Southeast 525 604 35,000  Level FlightAware ADS-B
Thu 11:18:48 PM 39.0510 -122.9340 145° Southeast 523 602 35,000  Level FlightAware ADS-B
Thu 11:19:28 PM 38.9740 -122.8630 144° Southeast 523 602 35,000  Level FlightAware ADS-B
Thu 11:20:08 PM 38.8950 -122.7910 145° Southeast 523 602 35,000  Level FlightAware ADS-B
Thu 11:20:53 PM 38.8030 -122.7070 145° Southeast 521 600 35,000  Level FlightAware ADS-B
Thu 11:21:33 PM 38.7250 -122.6360 145° Southeast 521 600 35,000  Level FlightAware ADS-B
Thu 11:22:18 PM 38.6360 -122.5550 145° Southeast 520 598 35,000  Level FlightAware ADS-B
Thu 11:22:58 PM 38.5570 -122.4840 145° Southeast 520 598 35,000  Level FlightAware ADS-B
Thu 11:23:38 PM 38.4800 -122.4140 145° Southeast 520 598 35,000  Level FlightAware ADS-B
Thu 11:24:23 PM 38.3930 -122.3360 145° Southeast 519 597 35,000  Level FlightAware ADS-B
Thu 11:25:03 PM 38.3140 -122.2650 145° Southeast 519 597 35,000  Level FlightAware ADS-B
Thu 11:25:48 PM 38.2260 -122.1870 145° Southeast 519 597 35,000  Level FlightAware ADS-B
Thu 11:26:28 PM 38.1490 -122.1170 144° Southeast 518 596 35,000  Level FlightAware ADS-B
Thu 11:27:08 PM 38.0690 -122.0460 145° Southeast 518 596 35,000  Level FlightAware ADS-B
Thu 11:27:53 PM 37.9800 -121.9680 145° Southeast 519 597 35,000  Level FlightAware ADS-B
Thu 11:28:33 PM 37.9000 -121.8970 145° Southeast 518 596 35,000  Level FlightAware ADS-B
Thu 11:29:18 PM 37.8130 -121.8200 145° Southeast 518 596 35,000  Level FlightAware ADS-B
Thu 11:29:58 PM 37.7330 -121.7500 145° Southeast 518 596 35,000  Level FlightAware ADS-B
Thu 11:30:38 PM 37.6540 -121.6800 145° Southeast 517 595 35,000  Level FlightAware ADS-B
Thu 11:31:23 PM 37.5680 -121.6050 145° Southeast 517 595 35,000  Level FlightAware ADS-B
Thu 11:32:03 PM 37.4890 -121.5360 145° Southeast 517 595 35,000  Level FlightAware ADS-B
Thu 11:32:48 PM 37.3990 -121.4580 145° Southeast 508 585 35,000  Level FlightAware ADS-B
Thu 11:33:28 PM 37.3220 -121.3910 145° Southeast 500 575 35,000  Level FlightAware ADS-B
Thu 11:34:08 PM 37.2520 -121.3300 145° Southeast 498 573 35,000  Level FlightAware ADS-B
Thu 11:34:53 PM 37.1620 -121.2530 146° Southeast 493 567 35,000  Level FlightAware ADS-B
Thu 11:35:28 PM 37.1010 -121.2000 145° Southeast 492 566 35,000  Level FlightAware ADS-B
Thu 11:36:13 PM 37.0110 -121.1230 146° Southeast 495 570 35,000  Level FlightAware ADS-B
Thu 11:36:58 PM 36.9280 -121.0520 146° Southeast 497 572 35,000  Level FlightAware ADS-B
Thu 11:37:38 PM 36.8580 -120.9920 146° Southeast 497 572 35,000  Level FlightAware ADS-B
Thu 11:38:23 PM 36.7720 -120.9190 146° Southeast 494 568 35,000  Level FlightAware ADS-B
Thu 11:39:03 PM 36.6900 -120.8490 146° Southeast 487 560 35,000  Level FlightAware ADS-B
Thu 11:39:48 PM 36.6170 -120.7630 137° Southeast 478 550 35,000  Level FlightAware ADS-B
Thu 11:40:28 PM 36.5760 -120.6700 119° Southeast 475 547 35,000  Level FlightAware ADS-B
Thu 11:41:08 PM 36.5350 -120.5730 118° Southeast 476 548 35,000  Level FlightAware ADS-B
Thu 11:41:53 PM 36.4860 -120.4650 119° Southeast 480 552 35,000  Level FlightAware ADS-B
Thu 11:42:33 PM 36.4210 -120.3940 139° Southeast 483 556 35,000  Level FlightAware ADS-B
Thu 11:43:18 PM 36.3280 -120.3370 154° Southeast 484 557 35,000  Level FlightAware ADS-B
Thu 11:43:58 PM 36.2500 -120.2820 150° Southeast 487 560 35,000  Level FlightAware ADS-B
Thu 11:44:38 PM 36.1710 -120.2290 152° Southeast 488 562 35,000  Level FlightAware ADS-B
Thu 11:45:23 PM 36.0830 -120.1720 152° Southeast 488 562 35,000  Level FlightAware ADS-B
Thu 11:46:03 PM 36.0020 -120.1200 153° Southeast 488 562 35,000  Level FlightAware ADS-B
Thu 11:46:48 PM 35.9110 -120.0610 152° Southeast 489 563 35,000  Level FlightAware ADS-B
Thu 11:47:28 PM 35.8310 -120.0100 153° Southeast 490 564 35,000  Level FlightAware ADS-B
Thu 11:48:08 PM 35.7520 -119.9590 152° Southeast 488 562 35,000  Level FlightAware ADS-B
Thu 11:48:53 PM 35.6620 -119.9010 152° Southeast 488 562 35,000  Level FlightAware ADS-B
Thu 11:49:33 PM 35.5890 -119.8540 152° Southeast 487 560 35,000  Level FlightAware ADS-B
Thu 11:50:13 PM 35.5010 -119.7980 153° Southeast 488 562 35,000 -141 Level FlightAware ADS-B
Thu 11:50:58 PM 35.4100 -119.7400 153° Southeast 487 560 34,800 -918 Descending FlightAware ADS-B
Thu 11:51:38 PM 35.3330 -119.6900 152° Southeast 483 556 33,700 -1,976 Descending FlightAware ADS-B
Thu 11:52:23 PM 35.2450 -119.6310 151° Southeast 481 554 32,000 -2,188 Descending FlightAware ADS-B
Thu 11:53:03 PM 35.1720 -119.5700 146° Southeast 484 557 30,600 -2,025 Descending FlightAware ADS-B
Thu 11:53:43 PM 35.0980 -119.5060 145° Southeast 480 552 29,300 -2,047 Descending FlightAware ADS-B
Thu 11:54:28 PM 35.0150 -119.4360 145° Southeast 470 541 27,700 -1,906 Descending FlightAware ADS-B
Thu 11:55:08 PM 34.9540 -119.3830 145° Southeast 455 524 26,600 -1,832 Descending FlightAware ADS-B
Thu 11:56:03 PM 34.8570 -119.3010 145° Southeast 448 516 24,800 -1,958 Descending FlightAware ADS-B
Thu 11:56:43 PM 34.7900 -119.2450 146° Southeast 436 502 23,500 -1,906 Descending FlightAware ADS-B
Thu 11:57:28 PM 34.7150 -119.1820 145° Southeast 426 490 22,100 -1,867 Descending FlightAware ADS-B
Thu 11:58:13 PM 34.6420 -119.1200 145° Southeast 415 478 20,700 -1,835 Descending FlightAware ADS-B
Thu 11:58:53 PM 34.5780 -119.0660 145° Southeast 408 470 19,500 -1,725 Descending FlightAware ADS-B
Thu 11:59:33 PM 34.5170 -119.0150 145° Southeast 389 448 18,400 -1,835 Descending FlightAware ADS-B
Fri 12:00:18 AM 34.4530 -118.9610 145° Southeast 371 427 16,900 -1,835 Descending FlightAware ADS-B
Fri 12:00:58 AM 34.3960 -118.9140 146° Southeast 369 425 15,800 -1,624 Descending FlightAware ADS-B
Fri 12:01:43 AM 34.3280 -118.8720 153° Southeast 353 406 14,600 -1,624 Descending FlightAware ADS-B
Fri 12:02:23 AM 34.2630 -118.8470 162° South 357 411 13,500 -1,624 Descending FlightAware ADS-B
Fri 12:03:08 AM 34.1930 -118.8200 162° South 352 405 12,300 -1,412 Descending FlightAware ADS-B
Fri 12:03:48 AM 34.1310 -118.7980 164° South 333 383 11,500 -1,275 Descending FlightAware ADS-B
Fri 12:04:28 AM 34.0740 -118.7770 163° South 308 354 10,600 -1,200 Descending FlightAware ADS-B
Fri 12:04:48 AM 34.0500 -118.7580 147° Southeast 305 351 10,300 -800 Descending FlightAware ADS-B
Fri 12:04:58 AM 34.0410 -118.7440 128° Southeast 301 346 10,200 -720 Descending FlightAware ADS-B
Fri 12:05:13 AM 34.0350 -118.7220 108° East 295 339 10,000 -533 Descending FlightAware ADS-B
Fri 12:05:43 AM 34.0300 -118.6720 97° East 295 339 9,800 -545 Descending FlightAware ADS-B
Fri 12:06:08 AM 34.0270 -118.6310 95° East 287 330 9,500 -982 Descending FlightAware ADS-B
Fri 12:06:38 AM 34.0230 -118.5830 96° East 280 322 8,900 -982 Descending FlightAware ADS-B
Fri 12:07:03 AM 34.0190 -118.5440 97° East 274 315 8,600 -982 Descending FlightAware ADS-B
Fri 12:07:33 AM 34.0150 -118.5000 96° East 266 306 8,000 -1,200 Descending FlightAware ADS-B
Fri 12:08:03 AM 34.0110 -118.4550 96° East 266 306 7,400 -1,527 Descending FlightAware ADS-B
Fri 12:08:28 AM 34.0130 -118.4170 86° East 259 298 6,600 -1,964 Descending FlightAware ADS-B
Fri 12:08:58 AM 34.0170 -118.3740 84° East 249 287 5,600 -2,100 Descending FlightAware ADS-B
Fri 12:09:28 AM 34.0190 -118.3350 86° East 241 277 4,500 -2,520 Descending FlightAware ADS-B
Fri 12:09:48 AM 34.0220 -118.3060 83° East 243 280 3,500 -1,477 Descending FlightAware ADS-B
Fri 12:10:33 AM 34.0240 -118.2790 85° East 240 276 2,900 -1,108 Descending FlightAware ADS-B
Fri 12:10:53 AM 34.0060 -118.2450 123° Southeast 223 257 2,300 -700 Descending FlightAware ADS-B
Fri 12:11:33 AM 33.9710 -118.2700 211° Southwest 191 220 2,200 -369 Descending FlightAware ADS-B
Fri 12:11:58 AM 33.9640 -118.2920 249° West 195 224 1,900 -800 Descending FlightAware ADS-B
Fri 12:12:03 AM 33.9620 -118.2990 251° West 192 221 1,800 -600 Descending FlightAware ADS-B
Fri 12:12:38 AM 33.9600 -118.3190 263° West 173 199 1,500 -764 Descending FlightAware ADS-B
Fri 12:12:58 AM 33.9590 -118.3380 266° West 167 192 1,100 -1,100 Descending FlightAware ADS-B
Fri 12:13:38 AM 33.9550 -118.3740 262° West 153 176 400 -1,050 Descending FlightAware ADS-B
Fri 12:14:08 AM 33.9530 -118.3980 264° West 160 184 -800 Descending FlightAware ADS-B
Fri 12:14:13 AM 33.9520 -118.3990 220° Southwest 160 184  Level FlightAware ADS-B
Fri 12:14:38 AM 33.9500 -118.4210 264° West 160 184  Level FlightAware ADS-B
Fri 12:22:00 AM 33.9425 -118.4081 228° Southwest  Level Estimated

Login

Don't have an account? Register now (free) for customized features, flight alerts, and more!